createdAt,value
2018-11-11T00:01:58.168Z,10.00
2018-11-11T00:04:27.978Z,10.00
2018-11-11T00:06:57.997Z,10.10
2018-11-11T00:09:27.912Z,10.10
2018-11-11T00:11:57.822Z,10.20
2018-11-11T00:14:27.744Z,10.20
2018-11-11T00:16:57.767Z,10.30
2018-11-11T00:19:27.776Z,10.40
2018-11-11T00:21:57.731Z,10.40
2018-11-11T00:24:27.664Z,10.50
2018-11-11T00:26:57.635Z,10.60
2018-11-11T00:29:27.579Z,10.70
2018-11-11T00:31:57.562Z,10.70
2018-11-11T00:34:27.406Z,10.70
2018-11-11T00:36:57.295Z,10.70
2018-11-11T00:39:27.301Z,10.70
2018-11-11T00:41:57.115Z,10.70
2018-11-11T00:44:27.028Z,10.70
2018-11-11T00:46:57.083Z,10.70
2018-11-11T00:49:27.067Z,10.60
2018-11-11T00:51:57.070Z,10.50
2018-11-11T00:54:26.947Z,10.40
2018-11-11T00:56:56.912Z,10.40
2018-11-11T00:59:26.868Z,10.40
2018-11-11T01:01:56.893Z,10.30
2018-11-11T01:04:26.800Z,10.30
2018-11-11T01:06:56.672Z,10.30
2018-11-11T01:09:26.591Z,10.30
2018-11-11T01:11:56.411Z,10.30
2018-11-11T01:14:26.424Z,10.30
2018-11-11T01:16:56.490Z,10.40
2018-11-11T01:19:26.454Z,10.40
2018-11-11T01:21:56.364Z,10.40
2018-11-11T01:24:26.202Z,10.40
2018-11-11T01:26:56.199Z,10.40
2018-11-11T01:29:26.169Z,10.40
2018-11-11T01:31:56.152Z,10.40
2018-11-11T01:34:26.156Z,10.40
2018-11-11T01:36:56.060Z,10.40
2018-11-11T01:39:25.980Z,10.30
2018-11-11T01:41:55.791Z,10.20
2018-11-11T01:44:25.695Z,10.20
2018-11-11T01:46:55.763Z,10.10
2018-11-11T01:49:25.693Z,10.10
2018-11-11T01:51:55.694Z,10.10
2018-11-11T01:54:25.563Z,10.00
2018-11-11T01:56:55.587Z,10.00
2018-11-11T01:59:25.641Z,9.90
2018-11-11T02:01:55.520Z,9.90
2018-11-11T02:04:25.422Z,9.90
2018-11-11T02:06:55.352Z,9.80
2018-11-11T02:09:25.263Z,9.80
2018-11-11T02:11:55.077Z,9.80
2018-11-11T02:14:24.994Z,9.90
2018-11-11T02:16:55.011Z,9.90
2018-11-11T02:19:24.877Z,9.90
2018-11-11T02:21:54.775Z,9.90
2018-11-11T02:24:24.646Z,9.90
2018-11-11T02:26:54.670Z,9.90
2018-11-11T02:29:24.479Z,10.00
2018-11-11T02:31:54.395Z,10.00
2018-11-11T02:34:24.352Z,10.20
2018-11-11T02:36:54.230Z,10.30
2018-11-11T02:39:24.143Z,10.30
2018-11-11T02:41:53.960Z,10.30
2018-11-11T02:44:23.884Z,10.40
2018-11-11T02:46:53.928Z,10.40
2018-11-11T02:49:23.798Z,10.40
2018-11-11T02:51:53.712Z,10.40
2018-11-11T02:54:23.584Z,10.50
2018-11-11T02:56:53.547Z,10.50
2018-11-11T02:59:23.399Z,10.50
2018-11-11T03:01:53.376Z,10.60
2018-11-11T03:04:23.387Z,10.60
2018-11-11T03:06:53.211Z,10.70
2018-11-11T03:09:23.247Z,10.70
2018-11-11T03:11:53.178Z,10.70
2018-11-11T03:14:23.153Z,10.70
2018-11-11T03:16:53.211Z,10.70
2018-11-11T03:19:23.388Z,10.80
2018-11-11T03:21:53.311Z,10.80
2018-11-11T03:24:23.267Z,10.80
2018-11-11T03:26:54.272Z,10.80
2018-11-11T03:29:24.121Z,10.80
2018-11-11T03:31:54.104Z,10.80
2018-11-11T03:34:24.155Z,10.70
2018-11-11T03:36:54.088Z,10.70
2018-11-11T03:39:24.187Z,10.50
2018-11-11T03:41:54.068Z,10.50
2018-11-11T03:44:23.979Z,10.50
2018-11-11T03:46:54.039Z,10.40
2018-11-11T03:49:24.021Z,10.40
2018-11-11T03:51:54.154Z,10.40
2018-11-11T03:54:24.088Z,10.40
2018-11-11T03:56:54.072Z,10.40
2018-11-11T03:59:23.980Z,10.40
2018-11-11T04:01:53.848Z,10.30
2018-11-11T04:04:23.807Z,10.30
2018-11-11T04:06:53.727Z,10.40
2018-11-11T04:09:23.640Z,10.30
2018-11-11T04:11:53.610Z,10.20
2018-11-11T04:14:23.581Z,10.20
2018-11-11T04:16:53.592Z,10.20
2018-11-11T04:19:23.412Z,10.30
2018-11-11T04:21:53.418Z,10.30
2018-11-11T04:24:23.375Z,10.40
2018-11-11T04:26:53.356Z,10.40
2018-11-11T04:29:23.322Z,10.40
2018-11-11T04:31:53.288Z,10.40
2018-11-11T04:34:23.200Z,10.30
2018-11-11T04:36:53.214Z,10.30
2018-11-11T04:39:23.218Z,10.30
2018-11-11T04:41:53.059Z,10.30
2018-11-11T04:44:23.004Z,10.40
2018-11-11T04:46:53.903Z,10.40
2018-11-11T04:49:23.820Z,10.30
2018-11-11T04:51:53.650Z,10.30
2018-11-11T04:54:23.647Z,10.30
2018-11-11T04:56:53.689Z,10.40
2018-11-11T04:59:23.634Z,10.40
2018-11-11T05:01:53.599Z,10.40
2018-11-11T05:04:23.406Z,10.40
2018-11-11T05:06:53.422Z,10.40
2018-11-11T05:09:23.383Z,10.40
2018-11-11T05:11:53.260Z,10.30
2018-11-11T05:14:23.375Z,10.30
2018-11-11T05:16:53.296Z,10.30
2018-11-11T05:19:23.208Z,10.30
2018-11-11T05:21:53.182Z,10.40
2018-11-11T05:24:23.105Z,10.40
2018-11-11T05:26:53.095Z,10.40
2018-11-11T05:29:23.072Z,10.30
2018-11-11T05:31:52.984Z,10.40
2018-11-11T05:34:22.803Z,10.30
2018-11-11T05:36:52.816Z,10.40
2018-11-11T05:39:22.780Z,10.40
2018-11-11T05:41:52.748Z,10.30
2018-11-11T05:44:22.663Z,10.30
2018-11-11T05:46:52.596Z,10.40
2018-11-11T05:49:22.595Z,10.30
2018-11-11T05:51:52.552Z,10.30
2018-11-11T05:54:22.531Z,10.30
2018-11-11T05:56:52.543Z,10.40
2018-11-11T05:59:22.416Z,10.30
2018-11-11T06:01:52.376Z,10.30
2018-11-11T06:04:22.341Z,10.30
2018-11-11T06:06:52.307Z,10.30
2018-11-11T06:09:22.258Z,10.30
2018-11-11T06:11:52.136Z,10.30
2018-11-11T06:14:22.056Z,10.30
2018-11-11T06:16:52.124Z,10.40
2018-11-11T06:19:22.096Z,10.40
2018-11-11T06:21:52.309Z,10.40
2018-11-11T06:24:22.223Z,10.40
2018-11-11T06:26:53.450Z,10.50
2018-11-11T06:29:23.278Z,10.40
2018-11-11T06:31:53.196Z,10.40
2018-11-11T06:34:23.154Z,10.50
2018-11-11T06:36:54.154Z,10.50
2018-11-11T06:39:23.963Z,10.40
2018-11-11T06:41:53.882Z,10.40
2018-11-11T06:44:23.876Z,10.50
2018-11-11T06:46:53.818Z,10.50
2018-11-11T06:49:23.751Z,10.50
2018-11-11T06:51:53.648Z,10.50
2018-11-11T06:54:23.766Z,10.60
2018-11-11T06:56:53.681Z,10.60
2018-11-11T06:59:23.854Z,10.60
2018-11-11T07:01:53.970Z,10.60
2018-11-11T07:04:23.829Z,10.60
2018-11-11T07:06:53.747Z,10.70
2018-11-11T07:09:23.565Z,10.60
2018-11-11T07:11:53.581Z,10.60
2018-11-11T07:14:23.533Z,10.50
2018-11-11T07:16:53.402Z,10.60
2018-11-11T07:19:23.325Z,10.60
2018-11-11T07:21:53.419Z,10.50
2018-11-11T07:24:23.378Z,10.60
2018-11-11T07:26:53.482Z,10.60
2018-11-11T07:29:23.416Z,10.60
2018-11-11T07:31:53.407Z,10.60
2018-11-11T07:34:23.363Z,10.70
2018-11-11T07:36:53.296Z,10.70
2018-11-11T07:39:23.294Z,10.70
2018-11-11T07:41:53.167Z,10.70
2018-11-11T07:44:23.088Z,10.70
2018-11-11T07:46:53.014Z,10.70
2018-11-11T07:49:22.967Z,10.70
2018-11-11T07:51:53.035Z,10.70
2018-11-11T07:54:22.904Z,10.80
2018-11-11T07:56:52.872Z,10.80
2018-11-11T07:59:23.010Z,10.80
2018-11-11T08:01:53.014Z,10.80
2018-11-11T08:04:22.959Z,10.90
2018-11-11T08:06:52.842Z,10.90
2018-11-11T08:09:22.857Z,10.90
2018-11-11T08:12:11.766Z,10.90
2018-11-11T08:14:41.681Z,10.90
2018-11-11T08:17:11.642Z,10.90
2018-11-11T08:19:41.455Z,10.90
2018-11-11T08:22:11.368Z,10.90
2018-11-11T08:24:41.203Z,10.90
2018-11-11T08:27:11.204Z,10.90
2018-11-11T08:29:41.183Z,10.90
2018-11-11T08:32:11.135Z,10.90
2018-11-11T08:34:41.056Z,11.00
2018-11-11T08:37:10.964Z,11.20
2018-11-11T08:39:40.878Z,11.30
2018-11-11T08:42:10.698Z,11.50
2018-11-11T08:44:40.608Z,11.60
2018-11-11T08:47:10.662Z,11.70
2018-11-11T08:49:40.536Z,11.90
2018-11-11T08:52:10.455Z,12.00
2018-11-11T08:54:40.267Z,12.10
2018-11-11T08:57:10.235Z,12.10
2018-11-11T08:59:40.168Z,12.20
2018-11-11T09:02:10.113Z,12.30
2018-11-11T09:04:40.085Z,12.40
2018-11-11T09:07:09.998Z,12.50
2018-11-11T09:09:39.913Z,13.10
2018-11-11T09:12:09.883Z,14.10
2018-11-11T09:14:39.893Z,15.20
2018-11-11T09:17:10.052Z,15.70
2018-11-11T09:19:40.118Z,15.70
2018-11-11T09:22:10.970Z,15.90
2018-11-11T09:24:40.884Z,16.20
2018-11-11T09:27:10.939Z,16.50
2018-11-11T09:29:40.920Z,16.00
2018-11-11T09:32:10.831Z,15.50
2018-11-11T09:34:40.608Z,15.00
2018-11-11T09:37:10.599Z,14.50
2018-11-11T09:39:40.580Z,14.30
2018-11-11T09:42:10.537Z,14.10
2018-11-11T09:44:40.420Z,14.00
2018-11-11T09:47:10.452Z,13.90
2018-11-11T09:49:40.355Z,13.80
2018-11-11T09:52:10.725Z,13.80
2018-11-11T09:54:40.575Z,13.70
2018-11-11T09:57:10.533Z,13.50
2018-11-11T09:59:40.543Z,13.30
2018-11-11T10:02:11.108Z,13.20
2018-11-11T10:04:45.900Z,13.10
2018-11-11T10:07:26.594Z,13.10
2018-11-11T10:10:01.525Z,13.10
2018-11-11T10:12:36.660Z,13.10
2018-11-11T10:17:16.525Z,13.30
2018-11-11T10:19:51.260Z,14.00
2018-11-11T10:22:30.487Z,15.40
2018-11-11T10:25:16.143Z,15.80
2018-11-11T10:27:51.623Z,16.00
2018-11-11T10:32:29.532Z,16.50
2018-11-11T10:35:12.191Z,17.90
2018-11-11T10:38:18.250Z,19.60
2018-11-11T10:40:57.235Z,20.40
2018-11-11T10:43:34.934Z,20.60
2018-11-11T10:46:09.354Z,21.00
2018-11-11T10:48:46.334Z,21.70
2018-11-11T10:51:16.302Z,22.50
2018-11-11T10:53:46.132Z,24.10
2018-11-11T10:56:16.636Z,24.30
2018-11-11T10:58:46.655Z,24.60
2018-11-11T11:02:22.164Z,24.10
2018-11-11T11:04:57.048Z,23.80
2018-11-11T11:07:27.095Z,23.60
2018-11-11T11:09:58.139Z,23.50
2018-11-11T11:12:27.969Z,23.60
2018-11-11T11:14:57.925Z,22.00
2018-11-11T11:17:27.842Z,20.90
2018-11-11T11:19:57.767Z,20.00
2018-11-11T11:22:27.618Z,19.50
2018-11-11T11:24:57.547Z,18.50
2018-11-11T11:27:27.459Z,17.90
2018-11-11T11:29:57.420Z,17.30
2018-11-11T11:32:27.766Z,16.60
2018-11-11T11:34:57.595Z,16.00
2018-11-11T11:37:27.674Z,15.20
2018-11-11T11:39:57.487Z,14.80
2018-11-11T11:42:27.402Z,14.60
2018-11-11T11:44:57.387Z,15.50
2018-11-11T11:47:27.200Z,16.80
2018-11-11T11:49:57.129Z,18.50
2018-11-11T11:52:27.011Z,20.10
2018-11-11T11:54:56.620Z,21.20
2018-11-11T11:57:26.240Z,21.60
2018-11-11T11:59:56.028Z,22.60
2018-11-11T12:02:26.008Z,23.10
2018-11-11T12:04:55.756Z,23.30
2018-11-11T12:07:25.892Z,23.60
2018-11-11T12:09:55.807Z,24.40
2018-11-11T12:12:25.777Z,25.10
2018-11-11T12:14:55.740Z,26.10
2018-11-11T12:17:25.594Z,25.90
2018-11-11T12:19:55.519Z,25.50
2018-11-11T12:22:25.290Z,26.50
2018-11-11T12:24:55.240Z,26.70
2018-11-11T12:27:25.300Z,26.60
2018-11-11T12:29:55.275Z,26.70
2018-11-11T12:32:25.296Z,26.10
2018-11-11T12:34:55.225Z,25.60
2018-11-11T12:37:25.231Z,25.90
2018-11-11T12:39:55.257Z,24.80
2018-11-11T12:42:25.007Z,24.90
2018-11-11T12:44:55.047Z,26.00
2018-11-11T12:47:25.863Z,26.40
2018-11-11T12:49:55.724Z,27.20
2018-11-11T12:52:25.631Z,27.30
2018-11-11T12:54:55.593Z,26.80
2018-11-11T12:57:26.533Z,25.00
2018-11-11T12:59:56.603Z,24.30
2018-11-11T13:02:26.545Z,23.70
2018-11-11T13:04:56.971Z,22.90
2018-11-11T13:07:27.169Z,23.00
2018-11-11T13:09:57.054Z,23.50
2018-11-11T13:12:27.110Z,23.30
2018-11-11T13:14:57.048Z,23.20
2018-11-11T13:17:27.078Z,23.40
2018-11-11T13:19:56.971Z,23.40
2018-11-11T13:22:27.088Z,23.10
2018-11-11T13:24:56.884Z,22.60
2018-11-11T13:27:26.803Z,23.80
2018-11-11T13:29:56.631Z,24.80
2018-11-11T13:32:26.628Z,25.20
2018-11-11T13:34:56.597Z,25.20
2018-11-11T13:37:26.417Z,25.80
2018-11-11T13:39:56.519Z,25.40
2018-11-11T13:42:26.449Z,25.10
2018-11-11T13:44:56.452Z,24.20
2018-11-11T13:47:26.382Z,23.50
2018-11-11T13:49:56.164Z,22.60
2018-11-11T13:52:26.090Z,22.40
2018-11-11T13:54:56.019Z,21.40
2018-11-11T13:57:25.882Z,22.00
2018-11-11T13:59:55.952Z,23.10
2018-11-11T14:02:25.886Z,23.50
2018-11-11T14:04:56.248Z,23.70
2018-11-11T14:07:26.299Z,24.50
2018-11-11T14:09:56.231Z,24.10
2018-11-11T14:12:26.211Z,24.00
2018-11-11T14:14:56.164Z,23.00
2018-11-11T14:17:26.268Z,21.30
2018-11-11T14:19:56.198Z,19.50
2018-11-11T14:22:26.480Z,18.80
2018-11-11T14:24:56.463Z,17.90
2018-11-11T14:27:26.356Z,17.60
2018-11-11T14:29:56.354Z,17.30
2018-11-11T14:32:26.383Z,16.80
2018-11-11T14:34:56.248Z,16.50
2018-11-11T14:37:27.385Z,16.40
2018-11-11T14:39:57.372Z,16.30
2018-11-11T14:42:27.275Z,16.20
2018-11-11T14:44:57.287Z,16.20
2018-11-11T14:47:28.335Z,16.20
2018-11-11T14:49:58.495Z,16.10
2018-11-11T14:52:28.561Z,16.00
2018-11-11T14:54:58.324Z,15.70
2018-11-11T14:57:28.387Z,15.40
2018-11-11T14:59:58.318Z,15.20
2018-11-11T15:02:28.170Z,15.00
2018-11-11T15:04:58.012Z,14.80
2018-11-11T15:07:28.307Z,14.50
2018-11-11T15:09:58.271Z,14.50
2018-11-11T15:12:28.406Z,14.40
2018-11-11T15:14:58.321Z,14.30
2018-11-11T15:17:28.204Z,14.30
2018-11-11T15:19:58.337Z,14.20
2018-11-11T15:22:28.127Z,14.00
2018-11-11T15:24:58.132Z,13.90
2018-11-11T15:27:27.993Z,13.80
2018-11-11T15:29:57.862Z,13.80
2018-11-11T15:32:27.818Z,13.80
2018-11-11T15:34:57.682Z,13.70
2018-11-11T15:37:27.676Z,13.70
2018-11-11T15:39:57.617Z,13.60
2018-11-11T15:42:27.744Z,13.50
2018-11-11T15:44:57.710Z,13.50
2018-11-11T15:47:27.712Z,13.30
2018-11-11T15:49:57.966Z,13.30
2018-11-11T15:52:27.952Z,13.20
2018-11-11T15:54:57.931Z,13.20
2018-11-11T15:57:27.988Z,13.10
2018-11-11T15:59:57.915Z,13.10
2018-11-11T16:02:27.817Z,13.00
2018-11-11T16:04:57.792Z,13.00
2018-11-11T16:07:27.839Z,12.90
2018-11-11T16:09:58.231Z,12.80
2018-11-11T16:12:28.510Z,12.80
2018-11-11T16:14:58.876Z,12.70
2018-11-11T16:17:29.393Z,12.60
2018-11-11T16:20:00.453Z,12.50
2018-11-11T16:22:31.226Z,12.40
2018-11-11T16:25:01.896Z,12.30
2018-11-11T16:27:32.634Z,12.20
2018-11-11T16:30:04.301Z,11.50
2018-11-11T16:32:35.102Z,12.00
2018-11-11T16:35:06.348Z,11.90
2018-11-11T16:37:37.326Z,11.80
2018-11-11T16:40:11.530Z,11.80
2018-11-11T16:42:42.381Z,11.70
2018-11-11T16:45:15.357Z,11.60
2018-11-11T16:47:46.578Z,11.60
2018-11-11T16:50:19.157Z,11.50
2018-11-11T16:52:50.159Z,11.40
2018-11-11T16:55:23.651Z,11.40
2018-11-11T16:57:54.049Z,11.40
2018-11-11T17:00:25.239Z,11.40
2018-11-11T17:02:56.517Z,11.30
2018-11-11T17:05:27.598Z,11.30
2018-11-11T17:07:57.564Z,11.20
2018-11-11T17:10:28.763Z,11.20
2018-11-11T17:12:59.946Z,11.10
2018-11-11T17:15:30.916Z,11.10
2018-11-11T17:18:01.271Z,11.00
2018-11-11T17:20:32.080Z,10.90
2018-11-11T17:23:04.695Z,10.90
2018-11-11T17:25:34.723Z,10.80
2018-11-11T17:28:04.864Z,10.80
2018-11-11T17:30:34.743Z,10.70
2018-11-11T17:33:05.816Z,10.70
2018-11-11T17:35:35.610Z,10.60
2018-11-11T17:38:06.170Z,10.60
2018-11-11T17:40:36.378Z,10.50
2018-11-11T17:43:06.618Z,10.50
2018-11-11T17:45:36.942Z,10.40
2018-11-11T17:48:08.319Z,10.40
2018-11-11T17:50:38.268Z,10.40
2018-11-11T17:53:08.225Z,10.30
2018-11-11T17:55:38.131Z,10.30
2018-11-11T17:58:09.574Z,10.30
2018-11-11T18:00:41.090Z,10.30
2018-11-11T18:03:12.804Z,10.20
2018-11-11T18:05:43.021Z,10.10
2018-11-11T18:08:13.008Z,10.10
2018-11-11T18:10:44.206Z,10.00
2018-11-11T18:13:14.163Z,10.00
2018-11-11T18:15:44.058Z,10.10
2018-11-11T18:18:14.083Z,10.10
2018-11-11T18:20:44.106Z,10.10
2018-11-11T18:23:13.962Z,10.00
2018-11-11T18:25:43.927Z,10.10
2018-11-11T18:28:13.889Z,10.20
2018-11-11T18:30:43.859Z,10.20
2018-11-11T18:33:13.822Z,10.20
2018-11-11T18:35:43.791Z,10.20
2018-11-11T18:38:13.811Z,10.10
2018-11-11T18:40:43.724Z,10.00
2018-11-11T18:43:13.352Z,10.10
2018-11-11T18:45:42.993Z,10.10
2018-11-11T18:48:12.584Z,10.10
2018-11-11T18:50:42.155Z,10.00
2018-11-11T18:53:11.716Z,10.10
2018-11-11T18:55:41.279Z,10.10
2018-11-11T18:58:11.225Z,10.10
2018-11-11T19:00:41.199Z,10.10
2018-11-11T19:03:11.270Z,10.10
2018-11-11T19:05:41.236Z,10.10
2018-11-11T19:08:11.257Z,10.10
2018-11-11T19:10:41.284Z,10.10
2018-11-11T19:13:11.193Z,10.10
2018-11-11T19:15:41.050Z,10.10
2018-11-11T19:18:11.026Z,10.10
2018-11-11T19:20:41.038Z,10.10
2018-11-11T19:23:10.980Z,10.10
2018-11-11T19:25:40.965Z,10.10
2018-11-11T19:28:11.030Z,10.10
2018-11-11T19:30:41.016Z,10.10
2018-11-11T19:33:10.914Z,10.00
2018-11-11T19:35:40.735Z,9.90
2018-11-11T19:38:10.742Z,9.90
2018-11-11T19:40:40.702Z,9.90
2018-11-11T19:43:10.580Z,9.90
2018-11-11T19:45:40.784Z,9.90
2018-11-11T19:48:11.750Z,9.80
2018-11-11T19:50:41.651Z,9.90
2018-11-11T19:53:11.464Z,9.80
2018-11-11T19:55:41.378Z,9.80
2018-11-11T19:58:11.432Z,9.80
2018-11-11T20:00:41.312Z,9.80
2018-11-11T20:03:11.280Z,9.80
2018-11-11T20:05:41.323Z,9.70
2018-11-11T20:08:11.366Z,9.80
2018-11-11T20:10:41.380Z,9.80
2018-11-11T20:13:11.242Z,9.80
2018-11-11T20:15:41.608Z,9.90
2018-11-11T20:18:11.776Z,9.90
2018-11-11T20:20:41.895Z,10.00
2018-11-11T20:23:12.370Z,10.00
2018-11-11T20:25:42.223Z,10.00
2018-11-11T20:28:12.422Z,10.10
2018-11-11T20:30:42.248Z,10.20
2018-11-11T20:33:12.261Z,10.20
2018-11-11T20:35:42.126Z,10.20
2018-11-11T20:38:12.182Z,10.20
2018-11-11T20:40:42.518Z,10.20
2018-11-11T20:43:12.646Z,10.10
2018-11-11T20:45:42.612Z,10.10
2018-11-11T20:48:12.599Z,10.10
2018-11-11T20:50:42.500Z,10.10
2018-11-11T20:53:12.493Z,10.10
2018-11-11T20:55:42.505Z,10.10
2018-11-11T20:58:12.480Z,10.20
2018-11-11T21:00:42.390Z,10.20
2018-11-11T21:03:12.312Z,10.20
2018-11-11T21:05:42.295Z,10.20
2018-11-11T21:08:12.207Z,10.30
2018-11-11T21:10:42.182Z,10.20
2018-11-11T21:13:12.162Z,10.30
2018-11-11T21:15:43.156Z,10.30
2018-11-11T21:18:13.082Z,10.20
2018-11-11T21:20:43.011Z,10.30
2018-11-11T21:23:12.965Z,10.40
2018-11-11T21:25:42.923Z,10.40
2018-11-11T21:28:12.942Z,10.40
2018-11-11T21:30:42.763Z,10.50
2018-11-11T21:33:12.572Z,10.50
2018-11-11T21:35:42.504Z,10.50
2018-11-11T21:38:12.498Z,10.50
2018-11-11T21:40:42.451Z,10.50
2018-11-11T21:43:12.444Z,10.50
2018-11-11T21:45:42.221Z,10.60
2018-11-11T21:48:12.159Z,10.60
2018-11-11T21:50:42.188Z,10.60
2018-11-11T21:53:19.001Z,10.60
2018-11-11T21:55:48.871Z,10.60
2018-11-11T21:58:18.895Z,10.60
2018-11-11T22:00:48.941Z,10.60
2018-11-11T22:03:18.674Z,10.60
2018-11-11T22:05:48.641Z,10.50
2018-11-11T22:08:18.557Z,10.50
2018-11-11T22:10:48.564Z,10.50
2018-11-11T22:13:18.718Z,10.50
2018-11-11T22:15:48.640Z,10.50
2018-11-11T22:18:18.995Z,10.50
2018-11-11T22:20:49.284Z,10.50
2018-11-11T22:23:19.159Z,10.40
2018-11-11T22:25:49.074Z,10.50
2018-11-11T22:28:19.043Z,10.50
2018-11-11T22:30:49.015Z,10.40
2018-11-11T22:33:19.022Z,10.40
2018-11-11T22:35:48.943Z,10.50
2018-11-11T22:38:18.854Z,10.50
2018-11-11T22:40:48.807Z,10.50
2018-11-11T22:43:18.788Z,10.50
2018-11-11T22:45:48.844Z,10.50
2018-11-11T22:48:18.828Z,10.50
2018-11-11T22:50:48.687Z,10.50
2018-11-11T22:53:18.555Z,10.40
2018-11-11T22:55:48.467Z,10.40
2018-11-11T22:58:18.525Z,10.40
2018-11-11T23:00:53.411Z,10.40
2018-11-11T23:03:23.334Z,10.40
2018-11-11T23:05:53.281Z,10.40
2018-11-11T23:08:23.275Z,10.40
2018-11-11T23:10:53.190Z,10.40
2018-11-11T23:13:23.190Z,10.40
2018-11-11T23:15:53.153Z,10.40
2018-11-11T23:18:23.127Z,10.40
2018-11-11T23:20:53.314Z,10.40
2018-11-11T23:23:23.304Z,10.40
2018-11-11T23:25:53.284Z,10.40
2018-11-11T23:28:23.349Z,10.40
2018-11-11T23:30:53.216Z,10.30
2018-11-11T23:33:23.231Z,10.30
2018-11-11T23:35:53.183Z,10.30
2018-11-11T23:38:23.163Z,10.30
2018-11-11T23:40:53.079Z,10.30
2018-11-11T23:43:22.900Z,10.30
2018-11-11T23:45:52.916Z,10.30
2018-11-11T23:48:23.067Z,10.30
2018-11-11T23:50:52.942Z,10.30
2018-11-11T23:53:23.179Z,10.30
2018-11-11T23:55:53.222Z,10.40
2018-11-11T23:58:23.152Z,10.40
